createdAt,value
2022-09-13T00:01:48.091Z,3.42
2022-09-13T00:04:34.063Z,3.42
2022-09-13T00:07:20.066Z,3.80
2022-09-13T00:10:06.266Z,3.40
2022-09-13T00:12:52.487Z,3.70
2022-09-13T00:15:42.446Z,3.13
2022-09-13T00:18:28.676Z,3.28
2022-09-13T00:21:16.189Z,3.05
2022-09-13T00:24:02.215Z,3.13
2022-09-13T00:26:48.268Z,3.50
2022-09-13T00:29:34.529Z,3.17
2022-09-13T00:32:20.484Z,3.35
2022-09-13T00:35:25.018Z,3.65
2022-09-13T00:38:11.150Z,3.25
2022-09-13T00:40:57.052Z,3.00
2022-09-13T00:43:49.651Z,3.20
2022-09-13T00:46:45.650Z,3.22
2022-09-13T00:49:36.922Z,3.13
2022-09-13T00:52:25.187Z,2.63
2022-09-13T00:55:22.983Z,2.67
2022-09-13T00:58:16.067Z,2.60
2022-09-13T01:01:03.691Z,2.63
2022-09-13T01:03:50.085Z,2.53
2022-09-13T01:06:38.196Z,2.75
2022-09-13T01:09:24.863Z,2.47
2022-09-13T01:12:18.794Z,2.58
2022-09-13T01:15:05.456Z,2.75
2022-09-13T01:17:52.790Z,2.72
2022-09-13T01:20:58.974Z,2.53
2022-09-13T01:23:57.665Z,3.03
2022-09-13T01:27:04.010Z,2.35
2022-09-13T01:30:03.785Z,2.92
2022-09-13T01:33:04.836Z,2.50
2022-09-13T01:36:10.890Z,3.08
2022-09-13T01:39:05.375Z,3.08
2022-09-13T01:41:51.492Z,3.00
2022-09-13T01:44:37.598Z,3.28
2022-09-13T01:47:26.049Z,2.83
2022-09-13T01:50:30.858Z,2.85
2022-09-13T01:53:16.771Z,3.10
2022-09-13T01:56:05.848Z,2.53
2022-09-13T01:59:12.134Z,2.95
2022-09-13T02:02:05.292Z,2.60
2022-09-13T02:04:55.814Z,2.60
2022-09-13T02:07:43.110Z,2.88
2022-09-13T02:10:48.915Z,3.38
2022-09-13T02:13:36.916Z,2.70
2022-09-13T02:16:28.751Z,2.63
2022-09-13T02:19:19.062Z,3.20
2022-09-13T02:22:06.768Z,2.47
2022-09-13T02:24:55.868Z,2.92
2022-09-13T02:27:44.642Z,3.25
2022-09-13T02:30:31.706Z,2.60
2022-09-13T02:33:24.866Z,2.58
2022-09-13T02:36:17.469Z,2.83
2022-09-13T02:41:48.865Z,2.78
2022-09-13T02:44:40.275Z,2.20
2022-09-13T02:47:39.140Z,2.87
2022-09-13T02:50:49.905Z,3.00
2022-09-13T02:53:45.373Z,2.42
2022-09-13T02:56:52.077Z,2.90
2022-09-13T02:59:38.096Z,2.85
2022-09-13T03:02:27.588Z,2.63
2022-09-13T03:05:13.282Z,2.38
2022-09-13T03:07:59.723Z,2.97
2022-09-13T03:10:52.231Z,2.22
2022-09-13T03:13:43.782Z,2.72
2022-09-13T03:16:51.614Z,2.60
2022-09-13T03:19:56.300Z,2.20
2022-09-13T03:22:50.053Z,2.20
2022-09-13T03:25:54.318Z,2.63
2022-09-13T03:28:40.275Z,2.17
2022-09-13T03:31:26.132Z,2.67
2022-09-13T03:34:16.936Z,2.50
2022-09-13T03:37:02.734Z,2.47
2022-09-13T03:39:51.974Z,2.80
2022-09-13T03:42:44.353Z,2.88
2022-09-13T03:45:33.686Z,2.70
2022-09-13T03:48:20.732Z,2.80
2022-09-13T03:51:07.023Z,2.92
2022-09-13T03:53:56.722Z,2.25
2022-09-13T03:56:42.680Z,2.58
2022-09-13T03:59:29.031Z,2.83
2022-09-13T04:02:15.651Z,2.80
2022-09-13T04:05:01.887Z,2.85
2022-09-13T04:07:47.747Z,2.67
2022-09-13T04:10:34.700Z,2.47
2022-09-13T04:13:23.031Z,2.30
2022-09-13T04:16:08.964Z,2.10
2022-09-13T04:18:55.083Z,2.90
2022-09-13T04:21:41.317Z,2.55
2022-09-13T04:24:28.974Z,2.75
2022-09-13T04:27:14.903Z,2.72
2022-09-13T04:30:01.245Z,2.72
2022-09-13T04:32:46.995Z,2.45
2022-09-13T04:35:33.190Z,3.17
2022-09-13T04:38:19.372Z,3.10
2022-09-13T04:41:05.683Z,3.65
2022-09-13T04:43:51.887Z,1.85
2022-09-13T04:46:37.759Z,3.13
2022-09-13T04:49:23.874Z,3.55
2022-09-13T04:52:09.914Z,3.03
2022-09-13T04:54:55.922Z,2.60
2022-09-13T04:57:41.980Z,3.28
2022-09-13T05:00:28.498Z,2.80
2022-09-13T05:03:14.526Z,2.53
2022-09-13T05:06:10.617Z,3.85
2022-09-13T05:08:56.729Z,3.60
2022-09-13T05:11:43.239Z,4.15
2022-09-13T05:14:29.238Z,3.38
2022-09-13T05:17:15.175Z,3.42
2022-09-13T05:20:01.332Z,2.85
2022-09-13T05:22:50.267Z,3.03
2022-09-13T05:25:36.291Z,2.53
2022-09-13T05:28:22.597Z,2.92
2022-09-13T05:31:31.860Z,3.13
2022-09-13T05:34:17.990Z,2.70
2022-09-13T05:37:03.957Z,3.55
2022-09-13T05:40:10.161Z,3.90
2022-09-13T05:42:56.543Z,3.63
2022-09-13T05:45:42.741Z,3.53
2022-09-13T05:48:29.783Z,3.50
2022-09-13T05:51:19.982Z,3.67
2022-09-13T05:54:05.808Z,2.95
2022-09-13T05:56:52.861Z,2.55
2022-09-13T05:59:38.917Z,3.20
2022-09-13T06:02:25.103Z,3.53
2022-09-13T06:05:11.319Z,4.20
2022-09-13T06:07:57.286Z,5.28
2022-09-13T06:10:43.392Z,10.75
2022-09-13T06:13:29.702Z,5.20
2022-09-13T06:16:17.127Z,2.75
2022-09-13T06:19:02.812Z,3.17
2022-09-13T06:21:48.890Z,3.40
2022-09-13T06:24:37.551Z,2.65
2022-09-13T06:27:23.423Z,2.70
2022-09-13T06:30:12.044Z,3.05
2022-09-13T06:32:58.320Z,2.75
2022-09-13T06:35:44.250Z,3.05
2022-09-13T06:38:30.482Z,2.35
2022-09-13T06:41:20.516Z,6.80
2022-09-13T06:44:06.342Z,2.72
2022-09-13T06:46:52.228Z,2.72
2022-09-13T06:49:39.118Z,2.88
2022-09-13T06:52:24.998Z,2.80
2022-09-13T06:55:12.810Z,6.93
2022-09-13T06:57:59.096Z,3.10
2022-09-13T07:00:45.560Z,3.03
2022-09-13T07:03:31.563Z,3.35
2022-09-13T07:06:22.152Z,3.28
2022-09-13T07:09:10.769Z,2.80
2022-09-13T07:11:56.680Z,2.65
2022-09-13T07:14:42.622Z,2.78
2022-09-13T07:17:31.435Z,2.80
2022-09-13T07:20:17.850Z,2.50
2022-09-13T07:23:03.809Z,2.40
2022-09-13T07:26:01.814Z,3.88
2022-09-13T07:28:49.011Z,2.70
2022-09-13T07:31:39.106Z,2.38
2022-09-13T07:34:28.571Z,2.85
2022-09-13T07:37:14.696Z,2.53
2022-09-13T07:40:00.713Z,2.58
2022-09-13T07:42:46.883Z,2.95
2022-09-13T07:45:34.467Z,3.58
2022-09-13T07:48:20.292Z,3.30
2022-09-13T07:51:10.907Z,3.00
2022-09-13T07:53:57.936Z,2.95
2022-09-13T07:56:44.248Z,2.80
2022-09-13T07:59:30.405Z,2.85
2022-09-13T08:02:18.089Z,2.38
2022-09-13T08:05:04.384Z,2.63
2022-09-13T08:07:50.390Z,2.22
2022-09-13T08:10:36.575Z,1.75
2022-09-13T08:13:22.900Z,2.30
2022-09-13T08:16:08.703Z,2.17
2022-09-13T08:18:55.686Z,2.30
2022-09-13T08:21:42.919Z,2.20
2022-09-13T08:24:47.486Z,2.00
2022-09-13T08:27:33.610Z,1.75
2022-09-13T08:30:19.913Z,1.80
2022-09-13T08:33:06.278Z,2.70
2022-09-13T08:35:52.803Z,1.85
2022-09-13T08:38:39.022Z,2.20
2022-09-13T08:41:42.259Z,2.22
2022-09-13T08:44:35.855Z,1.75
2022-09-13T08:47:40.482Z,1.42
2022-09-13T08:50:31.422Z,1.67
2022-09-13T08:53:19.494Z,1.60
2022-09-13T08:56:05.644Z,1.85
2022-09-13T08:59:10.256Z,2.08
2022-09-13T09:02:09.980Z,2.13
2022-09-13T09:05:11.584Z,1.40
2022-09-13T09:08:02.981Z,1.98
2022-09-13T09:10:50.419Z,1.37
2022-09-13T09:13:42.496Z,1.50
2022-09-13T09:19:20.534Z,1.88
2022-09-13T09:22:11.844Z,1.88
2022-09-13T09:25:01.044Z,1.40
2022-09-13T09:27:47.186Z,1.48
2022-09-13T09:30:39.246Z,1.45
2022-09-13T09:33:28.226Z,1.80
2022-09-13T09:36:24.459Z,1.42
2022-09-13T09:39:12.445Z,1.65
2022-09-13T09:41:59.298Z,2.67
2022-09-13T09:44:49.498Z,1.90
2022-09-13T09:47:50.131Z,1.40
2022-09-13T09:50:43.658Z,2.05
2022-09-13T09:53:37.133Z,2.35
2022-09-13T09:56:31.516Z,1.60
2022-09-13T09:59:31.309Z,1.63
2022-09-13T10:02:21.542Z,1.80
2022-09-13T10:05:07.851Z,1.52
2022-09-13T10:07:54.733Z,2.10
2022-09-13T10:10:43.052Z,1.80
2022-09-13T10:13:32.040Z,1.27
2022-09-13T10:16:28.652Z,1.63
2022-09-13T10:19:32.848Z,1.15
2022-09-13T10:22:19.589Z,1.83
2022-09-13T10:25:25.080Z,1.65
2022-09-13T10:28:14.620Z,1.90
2022-09-13T10:31:06.310Z,1.60
2022-09-13T10:33:59.744Z,1.83
2022-09-13T10:36:53.835Z,1.38
2022-09-13T10:39:50.148Z,1.88
2022-09-13T10:42:36.468Z,1.48
2022-09-13T10:45:23.774Z,1.23
2022-09-13T10:48:09.704Z,1.92
2022-09-13T10:51:04.480Z,1.45
2022-09-13T10:53:50.479Z,2.60
2022-09-13T10:56:36.514Z,1.60
2022-09-13T10:59:23.774Z,1.65
2022-09-13T11:02:35.052Z,2.45
2022-09-13T11:05:24.494Z,3.42
2022-09-13T11:08:21.378Z,2.22
2022-09-13T11:11:31.039Z,1.50
2022-09-13T11:14:16.980Z,1.63
2022-09-13T11:17:08.043Z,1.60
2022-09-13T11:20:13.403Z,1.65
2022-09-13T11:23:15.277Z,1.85
2022-09-13T11:26:10.121Z,1.85
2022-09-13T11:29:20.692Z,1.63
2022-09-13T11:32:13.524Z,1.23
2022-09-13T11:35:18.263Z,1.42
2022-09-13T11:38:07.426Z,1.40
2022-09-13T11:40:53.703Z,1.95
2022-09-13T11:44:10.410Z,1.73
2022-09-13T11:47:15.431Z,1.38
2022-09-13T11:50:10.127Z,2.05
2022-09-13T11:53:05.077Z,1.55
2022-09-13T11:55:54.403Z,1.58
2022-09-13T11:58:47.675Z,1.50
2022-09-13T12:01:43.819Z,1.42
2022-09-13T12:04:54.914Z,1.50
2022-09-13T12:07:56.921Z,1.65
2022-09-13T12:10:56.834Z,1.58
2022-09-13T12:13:54.168Z,2.08
2022-09-13T12:16:45.377Z,1.60
2022-09-13T12:19:31.455Z,1.55
2022-09-13T12:22:18.098Z,1.58
2022-09-13T12:25:06.270Z,1.70
2022-09-13T12:28:18.554Z,1.75
2022-09-13T12:31:07.274Z,1.67
2022-09-13T12:33:53.586Z,1.85
2022-09-13T12:36:39.717Z,1.20
2022-09-13T12:39:34.843Z,1.50
2022-09-13T12:42:23.661Z,1.98
2022-09-13T12:45:28.576Z,1.77
2022-09-13T12:48:14.375Z,1.23
2022-09-13T12:51:09.109Z,1.65
2022-09-13T12:54:07.596Z,1.55
2022-09-13T12:56:56.905Z,1.50
2022-09-13T12:59:52.598Z,1.58
2022-09-13T13:02:40.187Z,2.13
2022-09-13T13:05:37.234Z,1.88
2022-09-13T13:08:23.327Z,2.22
2022-09-13T13:11:13.506Z,1.50
2022-09-13T13:14:09.483Z,1.20
2022-09-13T13:16:55.166Z,1.20
2022-09-13T13:19:40.798Z,1.10
2022-09-13T13:22:45.212Z,1.10
2022-09-13T13:25:39.418Z,1.13
2022-09-13T13:28:43.655Z,1.38
2022-09-13T13:31:32.838Z,1.30
2022-09-13T13:34:18.810Z,1.40
2022-09-13T13:37:07.823Z,1.10
2022-09-13T13:40:13.326Z,1.48
2022-09-13T13:43:29.341Z,1.25
2022-09-13T13:46:15.320Z,1.10
2022-09-13T13:49:20.397Z,1.17
2022-09-13T13:52:09.335Z,1.30
2022-09-13T13:54:57.825Z,1.00
2022-09-13T13:57:43.818Z,1.40
2022-09-13T14:00:31.305Z,1.30
2022-09-13T14:03:36.024Z,1.95
2022-09-13T14:06:29.007Z,1.33
2022-09-13T14:09:33.357Z,1.10
2022-09-13T14:12:24.267Z,1.38
2022-09-13T14:15:15.493Z,1.35
2022-09-13T14:18:04.295Z,1.30
2022-09-13T14:21:00.530Z,1.27
2022-09-13T14:23:46.313Z,0.95
2022-09-13T14:26:32.562Z,1.30
2022-09-13T14:29:20.494Z,1.20
2022-09-13T14:32:10.769Z,1.23
2022-09-13T14:35:01.186Z,1.15
2022-09-13T14:37:47.031Z,1.20
2022-09-13T14:40:33.019Z,1.05
2022-09-13T14:43:20.468Z,1.10
2022-09-13T14:46:08.695Z,1.60
2022-09-13T14:48:57.991Z,1.52
2022-09-13T14:51:46.933Z,1.30
2022-09-13T14:54:41.910Z,1.20
2022-09-13T14:57:34.127Z,1.20
2022-09-13T15:00:22.321Z,0.93
2022-09-13T15:03:14.020Z,1.00
2022-09-13T15:08:47.251Z,1.60
2022-09-13T15:11:34.310Z,1.55
2022-09-13T15:14:39.011Z,1.33
2022-09-13T15:17:25.200Z,1.50
2022-09-13T15:20:12.488Z,1.70
2022-09-13T15:22:58.959Z,1.20
2022-09-13T15:25:51.433Z,1.40
2022-09-13T15:28:43.922Z,1.00
2022-09-13T15:31:31.286Z,1.30
2022-09-13T15:34:17.143Z,1.02
2022-09-13T15:37:06.374Z,1.42
2022-09-13T15:40:08.165Z,1.52
2022-09-13T15:43:13.427Z,1.35
2022-09-13T15:46:01.603Z,1.05
2022-09-13T15:48:51.527Z,1.23
2022-09-13T15:51:39.357Z,1.42
2022-09-13T15:54:35.474Z,1.27
2022-09-13T15:57:24.634Z,1.13
2022-09-13T16:00:15.055Z,1.35
2022-09-13T16:03:01.329Z,1.17
2022-09-13T16:05:47.651Z,1.13
2022-09-13T16:08:33.812Z,1.20
2022-09-13T16:11:19.716Z,0.98
2022-09-13T16:14:05.903Z,1.38
2022-09-13T16:16:55.448Z,1.15
2022-09-13T16:19:41.512Z,0.93
2022-09-13T16:22:27.868Z,1.00
2022-09-13T16:25:14.978Z,1.48
2022-09-13T16:28:01.619Z,1.08
2022-09-13T16:30:48.676Z,1.65
2022-09-13T16:33:34.798Z,1.35
2022-09-13T16:36:20.870Z,1.52
2022-09-13T16:39:06.965Z,1.20
2022-09-13T16:42:12.527Z,1.52
2022-09-13T16:44:58.424Z,1.70
2022-09-13T16:47:44.364Z,1.75
2022-09-13T16:50:34.361Z,1.67
2022-09-13T16:53:21.028Z,1.60
2022-09-13T16:56:08.114Z,1.23
2022-09-13T16:58:54.614Z,1.40
2022-09-13T17:01:40.683Z,1.98
2022-09-13T17:04:26.755Z,2.75
2022-09-13T17:07:14.032Z,3.05
2022-09-13T17:10:00.364Z,3.63
2022-09-13T17:12:46.075Z,8.05
2022-09-13T17:15:32.223Z,16.83
2022-09-13T17:18:18.614Z,21.40
2022-09-13T17:21:04.699Z,17.10
2022-09-13T17:23:50.887Z,7.90
2022-09-13T17:26:37.640Z,6.57
2022-09-13T17:29:25.496Z,8.60
2022-09-13T17:32:11.516Z,10.18
2022-09-13T17:34:57.633Z,5.57
2022-09-13T17:37:44.044Z,6.43
2022-09-13T17:40:31.050Z,5.13
2022-09-13T17:43:16.986Z,2.03
2022-09-13T17:46:07.089Z,3.17
2022-09-13T17:48:53.830Z,1.88
2022-09-13T17:51:39.831Z,2.08
2022-09-13T17:54:26.320Z,2.47
2022-09-13T17:57:15.564Z,2.50
2022-09-13T18:00:01.798Z,2.15
2022-09-13T18:02:52.358Z,2.03
2022-09-13T18:05:38.298Z,2.30
2022-09-13T18:08:26.539Z,2.63
2022-09-13T18:11:14.497Z,2.28
2022-09-13T18:17:01.485Z,2.15
2022-09-13T18:19:48.020Z,2.95
2022-09-13T18:22:33.906Z,2.63
2022-09-13T18:25:23.532Z,3.03
2022-09-13T18:28:09.454Z,2.58
2022-09-13T18:30:56.671Z,2.50
2022-09-13T18:33:43.480Z,3.63
2022-09-13T18:36:29.829Z,2.88
2022-09-13T18:39:17.271Z,2.80
2022-09-13T18:42:04.225Z,2.38
2022-09-13T18:44:50.981Z,1.98
2022-09-13T18:47:38.472Z,2.05
2022-09-13T18:50:24.716Z,1.92
2022-09-13T18:53:10.692Z,1.55
2022-09-13T18:56:00.264Z,2.53
2022-09-13T18:58:46.820Z,2.92
2022-09-13T19:01:34.380Z,2.47
2022-09-13T19:04:20.966Z,2.38
2022-09-13T19:07:07.180Z,1.95
2022-09-13T19:09:53.587Z,2.25
2022-09-13T19:12:39.610Z,2.30
2022-09-13T19:15:25.872Z,2.17
2022-09-13T19:18:11.823Z,1.88
2022-09-13T19:21:06.128Z,2.25
2022-09-13T19:23:59.455Z,2.00
2022-09-13T19:26:56.730Z,2.10
2022-09-13T19:29:42.386Z,2.67
2022-09-13T19:32:31.665Z,2.55
2022-09-13T19:35:17.906Z,3.22
2022-09-13T19:38:05.659Z,2.38
2022-09-13T19:40:59.525Z,2.28
2022-09-13T19:43:47.439Z,2.40
2022-09-13T19:46:43.235Z,1.98
2022-09-13T19:49:29.214Z,1.90
2022-09-13T19:52:19.078Z,2.47
2022-09-13T19:55:05.500Z,2.33
2022-09-13T19:57:52.651Z,2.60
2022-09-13T20:00:38.998Z,2.35
2022-09-13T20:03:26.974Z,2.20
2022-09-13T20:06:14.132Z,3.33
2022-09-13T20:09:00.798Z,2.00
2022-09-13T20:11:48.703Z,1.98
2022-09-13T20:14:34.927Z,2.20
2022-09-13T20:17:21.294Z,2.13
2022-09-13T20:20:09.387Z,2.15
2022-09-13T20:23:13.983Z,2.30
2022-09-13T20:26:00.422Z,2.40
2022-09-13T20:28:51.328Z,2.53
2022-09-13T20:31:38.710Z,2.08
2022-09-13T20:34:25.044Z,2.60
2022-09-13T20:37:11.790Z,2.10
2022-09-13T20:39:57.737Z,2.47
2022-09-13T20:42:43.616Z,2.20
2022-09-13T20:45:30.132Z,2.25
2022-09-13T20:48:16.289Z,2.08
2022-09-13T20:51:04.338Z,1.88
2022-09-13T20:54:00.630Z,1.80
2022-09-13T20:56:46.801Z,2.00
2022-09-13T20:59:32.883Z,2.08
2022-09-13T21:02:19.681Z,2.15
2022-09-13T21:05:06.215Z,1.92
2022-09-13T21:08:10.715Z,2.35
2022-09-13T21:11:04.267Z,3.00
2022-09-13T21:13:52.854Z,2.60
2022-09-13T21:16:40.834Z,2.58
2022-09-13T21:19:29.409Z,2.13
2022-09-13T21:22:15.071Z,2.40
2022-09-13T21:25:03.424Z,2.38
2022-09-13T21:27:49.342Z,2.10
2022-09-13T21:30:58.434Z,2.17
2022-09-13T21:33:44.607Z,2.47
2022-09-13T21:36:33.772Z,2.50
2022-09-13T21:39:20.101Z,2.40
2022-09-13T21:42:05.967Z,2.88
2022-09-13T21:44:52.190Z,2.17
2022-09-13T21:47:38.207Z,2.83
2022-09-13T21:50:24.493Z,2.55
2022-09-13T21:53:10.930Z,2.00
2022-09-13T21:55:59.350Z,2.25
2022-09-13T21:58:49.735Z,2.55
2022-09-13T22:01:38.648Z,2.72
2022-09-13T22:04:27.551Z,2.47
2022-09-13T22:07:13.399Z,2.22
2022-09-13T22:09:59.424Z,2.95
2022-09-13T22:12:45.425Z,2.63
2022-09-13T22:15:31.614Z,2.30
2022-09-13T22:18:17.713Z,2.53
2022-09-13T22:21:05.383Z,2.78
2022-09-13T22:23:51.627Z,3.20
2022-09-13T22:26:39.506Z,2.88
2022-09-13T22:29:25.880Z,2.58
2022-09-13T22:32:12.493Z,2.47
2022-09-13T22:34:58.855Z,2.42
2022-09-13T22:37:45.070Z,2.88
2022-09-13T22:40:31.652Z,2.50
2022-09-13T22:43:19.698Z,2.33
2022-09-13T22:46:10.808Z,2.83
2022-09-13T22:48:57.115Z,2.30
2022-09-13T22:51:45.081Z,2.38
2022-09-13T22:54:31.118Z,2.85
2022-09-13T22:57:17.105Z,2.28
2022-09-13T23:00:06.963Z,2.35
2022-09-13T23:03:14.050Z,2.90
2022-09-13T23:05:59.796Z,2.70
2022-09-13T23:08:49.199Z,2.30
2022-09-13T23:11:38.969Z,2.60
2022-09-13T23:14:24.400Z,2.42
2022-09-13T23:17:16.778Z,2.97
2022-09-13T23:22:54.129Z,2.60
2022-09-13T23:25:40.208Z,2.90
2022-09-13T23:28:26.143Z,2.50
2022-09-13T23:31:14.024Z,2.70
2022-09-13T23:34:02.010Z,2.10
2022-09-13T23:36:48.162Z,3.05
2022-09-13T23:39:34.120Z,2.42
2022-09-13T23:42:19.754Z,2.47
2022-09-13T23:45:06.209Z,2.30
2022-09-13T23:47:52.281Z,2.65
2022-09-13T23:50:38.492Z,2.15
2022-09-13T23:53:24.541Z,2.50
2022-09-13T23:56:30.448Z,2.58
2022-09-13T23:59:16.605Z,2.38
